This is the latest recevied weather packets stored in our database for station/object WS4FSC-7. If no packets are shown the sender has not sent any weather packets the latest 10 day(s).
| Time | Temp. | Humidity | Pressure | Rain* | Wind** | Luminosity | Snow |
|---|---|---|---|---|---|---|---|
| 1788362631 | 30° C | 80% | 1015 hPa | - | - | 377 W/m² | - |
| 1788362270 | 29.44° C | 81% | 1015 hPa | - | - | 300 W/m² | - |
| 1788361911 | 29.44° C | 80% | 1015 hPa | - | - | 272 W/m² | - |
| 1788361551 | 29.44° C | 79% | 1015 hPa | - | - | 275 W/m² | - |
| 1788360290 | 29.44° C | 81% | 1015 hPa | - | - | 278 W/m² | - |
| 1788359751 | 28.89° C | 81% | 1015 hPa | - | - | 299 W/m² | - |
| 1788359391 | 28.89° C | 82% | 1015 hPa | - | - | 289 W/m² | - |
| 1788359211 | 28.89° C | 82% | 1015 hPa | - | - | 300 W/m² | - |
| 1788359031 | 28.89° C | 83% | 1015 hPa | - | - | 295 W/m² | - |
| 1788358851 | 28.89° C | 83% | 1015 hPa | - | - | 302 W/m² | - |
| 1788358491 | 28.33° C | 84% | 1015 hPa | - | - | 271 W/m² | - |
| 1788357230 | 27.78° C | 88% | 1015 hPa | - | - | 168 W/m² | - |
| 1788357050 | 27.78° C | 88% | 1014 hPa | - | - | 178 W/m² | - |
| 1788356511 | 27.78° C | 90% | 1014 hPa | - | - | 184 W/m² | - |
| 1788356151 | 27.22° C | 91% | 1015 hPa | - | - | 143 W/m² | - |
| 1788354530 | 27.22° C | 94% | 1014 hPa | - | - | 76 W/m² | - |
| 1788354350 | 27.22° C | 93% | 1014 hPa | - | - | 74 W/m² | - |
| 1788353993 | 26.67° C | 94% | 1014 hPa | - | - | 68 W/m² | - |
| 1788353630 | 27.22° C | 94% | 1014 hPa | - | - | 65 W/m² | - |
| 1788353451 | 26.67° C | 94% | 1014 hPa | - | - | 69 W/m² | - |
| 1788352011 | 26.67° C | 93% | 1014 hPa | - | - | 62 W/m² | - |
| 1788351832 | 26.67° C | 94% | 1014 hPa | - | - | 60 W/m² | - |
| 1788351651 | 26.67° C | 94% | 1014 hPa | - | - | 58 W/m² | - |
| 1788350930 | 26.67° C | 95% | 1014 hPa | - | - | 46 W/m² | - |
| 1788350570 | 26.67° C | 95% | 1014 hPa | - | - | 37 W/m² | - |
* Rain since midnight (hover to see other rain measurements)
** Current wind speed in m/s (hover to see current wind gust speed)